LYBE/BEG METAR and TAF weather

Enter ICAO airport designator
Station Type Date Time Source
LYBE METAR 2022/12/03 16:30 UTC NOAA

LYBE 031630Z 10009KT CAVOK 05/03 Q1023 NOSIG


Station Type Date Time Source
LYBE Decoded METAR 2022/12/03 16:30 UTC NOAA

Beograd / Surcin, Serbia and Montenegro (LYBE) 44-49N 020-17E 99M
Dec 03, 2022 - 11:30 AM EST / 2022.12.03 1630 UTC
Wind: from the E (100 degrees) at 10 MPH (9 KT):0
Visibility: greater than 7 mile(s):0
Temperature: 41 F (5 C)
Dew Point: 37 F (3 C)
Relative Humidity: 86%
Pressure (altimeter): 30.21 in. Hg (1023 hPa)
ob: LYBE 031630Z 10009KT CAVOK 05/03 Q1023 NOSIG
cycle: 16

Station Type Date Time Source
LYBE TAF 2022/12/03 12:21 UTC NOAA

TAF LYBE 031100Z 0312/0412 13014KT CAVOK TX10/0313Z TN04/0406Z
BECMG 0321/0323 13024KT

Example: see airport list